sensor_id;sensor_type;location;lat;lon;timestamp;pressure;altitude;pressure_sealevel;temperature;humidity
15405;BME280;7801;48.124;11.590;2023-04-28T00:00:53;95403.00;;;9.98;85.62
15405;BME280;7801;48.124;11.590;2023-04-28T00:03:26;95406.38;;;9.85;85.79
15405;BME280;7801;48.124;11.590;2023-04-28T00:05:54;95403.22;;;9.83;86.10
15405;BME280;7801;48.124;11.590;2023-04-28T00:08:22;95396.22;;;9.73;86.35
15405;BME280;7801;48.124;11.590;2023-04-28T00:10:53;95398.66;;;9.70;86.58
15405;BME280;7801;48.124;11.590;2023-04-28T00:13:19;95395.84;;;9.80;85.92
15405;BME280;7801;48.124;11.590;2023-04-28T00:15:46;95388.56;;;9.72;86.34
15405;BME280;7801;48.124;11.590;2023-04-28T00:18:13;95392.06;;;9.86;86.17
15405;BME280;7801;48.124;11.590;2023-04-28T00:20:49;95391.75;;;10.06;85.29
15405;BME280;7801;48.124;11.590;2023-04-28T00:23:17;95383.81;;;10.06;84.78
15405;BME280;7801;48.124;11.590;2023-04-28T00:25:50;95380.03;;;10.12;84.66
15405;BME280;7801;48.124;11.590;2023-04-28T00:28:17;95374.78;;;10.07;84.66
15405;BME280;7801;48.124;11.590;2023-04-28T00:30:44;95380.94;;;10.03;84.68
15405;BME280;7801;48.124;11.590;2023-04-28T00:33:12;95379.38;;;10.02;84.99
15405;BME280;7801;48.124;11.590;2023-04-28T00:35:39;95378.19;;;9.94;85.22
15405;BME280;7801;48.124;11.590;2023-04-28T00:38:05;95374.16;;;9.96;85.09
15405;BME280;7801;48.124;11.590;2023-04-28T00:40:36;95363.91;;;10.09;84.55
15405;BME280;7801;48.124;11.590;2023-04-28T00:43:04;95361.91;;;10.19;84.44
15405;BME280;7801;48.124;11.590;2023-04-28T00:45:33;95365.13;;;10.16;84.32
15405;BME280;7801;48.124;11.590;2023-04-28T00:47:59;95356.09;;;10.17;84.42
15405;BME280;7801;48.124;11.590;2023-04-28T00:50:28;95362.47;;;10.16;84.26
15405;BME280;7801;48.124;11.590;2023-04-28T00:52:54;95364.75;;;10.23;83.93
15405;BME280;7801;48.124;11.590;2023-04-28T00:55:34;95367.13;;;10.24;83.91
15405;BME280;7801;48.124;11.590;2023-04-28T00:58:01;95364.41;;;10.29;83.74
15405;BME280;7801;48.124;11.590;2023-04-28T01:00:26;95364.59;;;10.33;83.54
15405;BME280;7801;48.124;11.590;2023-04-28T01:02:53;95365.91;;;10.36;83.39
15405;BME280;7801;48.124;11.590;2023-04-28T01:05:32;95359.81;;;10.35;83.31
15405;BME280;7801;48.124;11.590;2023-04-28T01:07:57;95361.28;;;10.41;83.44
15405;BME280;7801;48.124;11.590;2023-04-28T01:10:23;95353.44;;;10.36;83.38
15405;BME280;7801;48.124;11.590;2023-04-28T01:12:49;95353.56;;;10.26;83.56
15405;BME280;7801;48.124;11.590;2023-04-28T01:15:17;95350.50;;;10.38;83.41
15405;BME280;7801;48.124;11.590;2023-04-28T01:17:46;95357.44;;;10.15;83.92
15405;BME280;7801;48.124;11.590;2023-04-28T01:20:12;95347.78;;;10.24;84.01
15405;BME280;7801;48.124;11.590;2023-04-28T01:22:41;95340.69;;;10.19;83.89
15405;BME280;7801;48.124;11.590;2023-04-28T01:25:08;95337.75;;;10.02;84.83
15405;BME280;7801;48.124;11.590;2023-04-28T01:27:35;95342.41;;;10.10;84.59
15405;BME280;7801;48.124;11.590;2023-04-28T01:30:01;95333.53;;;10.20;84.22
15405;BME280;7801;48.124;11.590;2023-04-28T01:32:27;95333.31;;;10.16;84.05
15405;BME280;7801;48.124;11.590;2023-04-28T01:34:54;95335.97;;;10.16;84.41
15405;BME280;7801;48.124;11.590;2023-04-28T01:37:22;95329.69;;;9.93;84.98
15405;BME280;7801;48.124;11.590;2023-04-28T01:39:50;95326.53;;;9.91;85.42
15405;BME280;7801;48.124;11.590;2023-04-28T01:42:17;95325.75;;;9.91;85.54
15405;BME280;7801;48.124;11.590;2023-04-28T01:44:46;95321.56;;;10.04;85.09
15405;BME280;7801;48.124;11.590;2023-04-28T01:47:15;95321.56;;;10.04;84.88
15405;BME280;7801;48.124;11.590;2023-04-28T01:49:40;95318.56;;;10.10;85.03
15405;BME280;7801;48.124;11.590;2023-04-28T01:52:07;95317.41;;;10.16;84.87
15405;BME280;7801;48.124;11.590;2023-04-28T01:54:32;95323.78;;;10.15;84.59
15405;BME280;7801;48.124;11.590;2023-04-28T01:56:59;95332.59;;;10.29;84.10
15405;BME280;7801;48.124;11.590;2023-04-28T01:59:25;95322.19;;;10.14;84.53
15405;BME280;7801;48.124;11.590;2023-04-28T02:01:53;95325.12;;;10.31;84.18
15405;BME280;7801;48.124;11.590;2023-04-28T02:04:22;95321.41;;;10.32;84.48
15405;BME280;7801;48.124;11.590;2023-04-28T02:06:52;95316.66;;;10.29;84.11
15405;BME280;7801;48.124;11.590;2023-04-28T02:09:19;95319.63;;;10.28;84.10
15405;BME280;7801;48.124;11.590;2023-04-28T02:11:45;95322.56;;;10.40;83.94
15405;BME280;7801;48.124;11.590;2023-04-28T02:14:13;95326.84;;;10.22;84.01
15405;BME280;7801;48.124;11.590;2023-04-28T02:16:38;95328.34;;;10.28;84.14
15405;BME280;7801;48.124;11.590;2023-04-28T02:19:05;95332.78;;;10.33;84.04
15405;BME280;7801;48.124;11.590;2023-04-28T02:21:32;95338.69;;;10.44;83.75
15405;BME280;7801;48.124;11.590;2023-04-28T02:23:57;95333.44;;;10.57;82.86
15405;BME280;7801;48.124;11.590;2023-04-28T02:26:24;95338.91;;;10.47;83.30
15405;BME280;7801;48.124;11.590;2023-04-28T02:28:51;95337.13;;;10.43;83.50
15405;BME280;7801;48.124;11.590;2023-04-28T02:31:16;95341.19;;;10.67;82.74
15405;BME280;7801;48.124;11.590;2023-04-28T02:33:42;95345.78;;;10.48;83.40
15405;BME280;7801;48.124;11.590;2023-04-28T02:36:09;95334.38;;;10.48;83.94
15405;BME280;7801;48.124;11.590;2023-04-28T02:38:36;95320.72;;;10.41;84.70
15405;BME280;7801;48.124;11.590;2023-04-28T02:41:08;95319.25;;;10.48;85.31
15405;BME280;7801;48.124;11.590;2023-04-28T02:43:36;95326.94;;;10.50;85.66
15405;BME280;7801;48.124;11.590;2023-04-28T02:46:02;95328.09;;;10.44;85.77
15405;BME280;7801;48.124;11.590;2023-04-28T02:48:27;95322.78;;;10.44;86.54
15405;BME280;7801;48.124;11.590;2023-04-28T02:50:55;95311.94;;;10.26;88.13
15405;BME280;7801;48.124;11.590;2023-04-28T02:53:22;95312.81;;;10.22;89.01
15405;BME280;7801;48.124;11.590;2023-04-28T02:55:52;95322.41;;;10.37;88.64
15405;BME280;7801;48.124;11.590;2023-04-28T02:58:19;95300.75;;;10.29;89.41
15405;BME280;7801;48.124;11.590;2023-04-28T03:00:47;95291.47;;;10.13;90.08
15405;BME280;7801;48.124;11.590;2023-04-28T03:03:12;95291.00;;;9.92;90.85
15405;BME280;7801;48.124;11.590;2023-04-28T03:05:39;95280.75;;;9.72;92.18
15405;BME280;7801;48.124;11.590;2023-04-28T03:08:08;95288.19;;;9.70;93.00
15405;BME280;7801;48.124;11.590;2023-04-28T03:10:33;95282.06;;;9.88;92.40
15405;BME280;7801;48.124;11.590;2023-04-28T03:12:59;95286.72;;;9.96;91.70
15405;BME280;7801;48.124;11.590;2023-04-28T03:15:26;95291.63;;;10.03;91.42
15405;BME280;7801;48.124;11.590;2023-04-28T03:17:51;95288.97;;;10.03;90.88
15405;BME280;7801;48.124;11.590;2023-04-28T03:20:17;95290.44;;;9.95;91.60
15405;BME280;7801;48.124;11.590;2023-04-28T03:22:43;95290.63;;;9.99;91.92
15405;BME280;7801;48.124;11.590;2023-04-28T03:25:08;95290.63;;;9.99;91.78
15405;BME280;7801;48.124;11.590;2023-04-28T03:27:34;95292.63;;;10.07;91.35
15405;BME280;7801;48.124;11.590;2023-04-28T03:30:02;95297.25;;;10.34;90.53
15405;BME280;7801;48.124;11.590;2023-04-28T03:32:29;95295.38;;;10.48;89.25
15405;BME280;7801;48.124;11.590;2023-04-28T03:34:58;95299.50;;;10.41;89.56
15405;BME280;7801;48.124;11.590;2023-04-28T03:37:25;95299.28;;;10.23;91.19
15405;BME280;7801;48.124;11.590;2023-04-28T03:39:53;95306.37;;;10.42;90.41
15405;BME280;7801;48.124;11.590;2023-04-28T03:42:18;95287.22;;;10.45;90.05
15405;BME280;7801;48.124;11.590;2023-04-28T03:44:45;95275.00;;;10.16;90.94
15405;BME280;7801;48.124;11.590;2023-04-28T03:47:13;95274.91;;;10.21;90.71
15405;BME280;7801;48.124;11.590;2023-04-28T03:49:39;95278.56;;;10.25;90.79
15405;BME280;7801;48.124;11.590;2023-04-28T03:52:06;95286.38;;;10.17;91.21
15405;BME280;7801;48.124;11.590;2023-04-28T03:54:31;95284.03;;;10.15;91.71
15405;BME280;7801;48.124;11.590;2023-04-28T03:56:56;95280.34;;;9.97;92.71
15405;BME280;7801;48.124;11.590;2023-04-28T03:59:23;95292.59;;;9.93;92.38
15405;BME280;7801;48.124;11.590;2023-04-28T04:01:52;95292.41;;;10.04;92.50
15405;BME280;7801;48.124;11.590;2023-04-28T04:04:18;95286.59;;;10.02;92.39
15405;BME280;7801;48.124;11.590;2023-04-28T04:06:45;95293.63;;;10.11;92.34
15405;BME280;7801;48.124;11.590;2023-04-28T04:09:11;95290.31;;;10.19;92.18
15405;BME280;7801;48.124;11.590;2023-04-28T04:11:38;95291.81;;;10.25;92.67
15405;BME280;7801;48.124;11.590;2023-04-28T04:14:05;95289.69;;;10.09;92.96
15405;BME280;7801;48.124;11.590;2023-04-28T04:16:32;95277.88;;;10.01;93.14
15405;BME280;7801;48.124;11.590;2023-04-28T04:19:03;95282.06;;;9.88;93.79
15405;BME280;7801;48.124;11.590;2023-04-28T04:21:30;95275.28;;;10.15;93.23
15405;BME280;7801;48.124;11.590;2023-04-28T04:23:58;95292.53;;;10.31;93.06
15405;BME280;7801;48.124;11.590;2023-04-28T04:26:25;95278.59;;;10.53;91.79
15405;BME280;7801;48.124;11.590;2023-04-28T04:28:50;95268.87;;;10.48;92.42
15405;BME280;7801;48.124;11.590;2023-04-28T04:31:17;95268.78;;;10.67;91.45
15405;BME280;7801;48.124;11.590;2023-04-28T04:33:44;95260.25;;;10.56;91.78
15405;BME280;7801;48.124;11.590;2023-04-28T04:36:10;95260.91;;;10.62;91.53
15405;BME280;7801;48.124;11.590;2023-04-28T04:38:35;95260.31;;;10.65;91.77
15405;BME280;7801;48.124;11.590;2023-04-28T04:41:02;95273.31;;;10.80;90.53
15405;BME280;7801;48.124;11.590;2023-04-28T04:43:28;95282.94;;;10.76;90.25
15405;BME280;7801;48.124;11.590;2023-04-28T04:45:56;95278.44;;;10.77;90.27
15405;BME280;7801;48.124;11.590;2023-04-28T04:48:21;95280.28;;;10.76;90.41
15405;BME280;7801;48.124;11.590;2023-04-28T04:50:48;95278.50;;;10.85;90.24
15405;BME280;7801;48.124;11.590;2023-04-28T04:53:15;95282.16;;;10.76;90.83
15405;BME280;7801;48.124;11.590;2023-04-28T04:55:41;95270.75;;;10.89;90.40
15405;BME280;7801;48.124;11.590;2023-04-28T04:58:09;95273.59;;;10.92;90.45
15405;BME280;7801;48.124;11.590;2023-04-28T05:00:34;95269.66;;;10.90;91.03
15405;BME280;7801;48.124;11.590;2023-04-28T05:03:04;95267.41;;;10.97;90.61
15405;BME280;7801;48.124;11.590;2023-04-28T05:05:31;95276.66;;;10.99;91.16
15405;BME280;7801;48.124;11.590;2023-04-28T05:07:58;95296.81;;;11.00;91.65
15405;BME280;7801;48.124;11.590;2023-04-28T05:10:25;95297.38;;;11.11;91.69
15405;BME280;7801;48.124;11.590;2023-04-28T05:12:56;95296.09;;;11.09;92.19
15405;BME280;7801;48.124;11.590;2023-04-28T05:15:23;95300.25;;;11.01;91.31
15405;BME280;7801;48.124;11.590;2023-04-28T05:17:55;95306.00;;;11.03;90.21
15405;BME280;7801;48.124;11.590;2023-04-28T05:20:36;95309.34;;;11.22;89.51
15405;BME280;7801;48.124;11.590;2023-04-28T05:23:01;95307.41;;;11.14;90.41
15405;BME280;7801;48.124;11.590;2023-04-28T05:25:28;95302.12;;;11.00;91.03
15405;BME280;7801;48.124;11.590;2023-04-28T05:27:56;95313.41;;;11.20;90.83
15405;BME280;7801;48.124;11.590;2023-04-28T05:30:22;95309.66;;;11.21;90.56
15405;BME280;7801;48.124;11.590;2023-04-28T05:32:52;95312.50;;;11.11;90.81
15405;BME280;7801;48.124;11.590;2023-04-28T05:35:20;95311.44;;;11.12;90.64
15405;BME280;7801;48.124;11.590;2023-04-28T05:37:48;95314.00;;;11.17;90.97
15405;BME280;7801;48.124;11.590;2023-04-28T05:40:15;95311.03;;;11.05;92.14
15405;BME280;7801;48.124;11.590;2023-04-28T05:42:41;95315.56;;;11.04;91.39
15405;BME280;7801;48.124;11.590;2023-04-28T05:45:09;95312.81;;;10.95;91.06
15405;BME280;7801;48.124;11.590;2023-04-28T05:47:36;95312.13;;;11.03;90.84
15405;BME280;7801;48.124;11.590;2023-04-28T05:50:03;95293.94;;;11.11;90.42
15405;BME280;7801;48.124;11.590;2023-04-28T05:52:30;95300.22;;;11.15;90.30
15405;BME280;7801;48.124;11.590;2023-04-28T05:54:56;95300.81;;;11.12;90.68
15405;BME280;7801;48.124;11.590;2023-04-28T05:57:25;95302.41;;;10.99;91.47
15405;BME280;7801;48.124;11.590;2023-04-28T05:59:52;95292.75;;;11.03;91.63
15405;BME280;7801;48.124;11.590;2023-04-28T06:02:19;95293.34;;;11.14;91.26
15405;BME280;7801;48.124;11.590;2023-04-28T06:04:45;95303.75;;;11.10;91.23
15405;BME280;7801;48.124;11.590;2023-04-28T06:07:10;95310.84;;;11.15;91.57
15405;BME280;7801;48.124;11.590;2023-04-28T06:09:36;95334.81;;;11.37;89.87
15405;BME280;7801;48.124;11.590;2023-04-28T06:12:05;95322.16;;;11.20;90.57
15405;BME280;7801;48.124;11.590;2023-04-28T06:14:32;95316.25;;;11.10;90.97
15405;BME280;7801;48.124;11.590;2023-04-28T06:16:57;95315.56;;;11.18;90.97
15405;BME280;7801;48.124;11.590;2023-04-28T06:19:24;95307.31;;;11.19;90.80
15405;BME280;7801;48.124;11.590;2023-04-28T06:21:51;95303.72;;;11.24;90.81
15405;BME280;7801;48.124;11.590;2023-04-28T06:24:19;95307.66;;;11.26;90.81
15405;BME280;7801;48.124;11.590;2023-04-28T06:26:46;95300.63;;;11.22;91.52
15405;BME280;7801;48.124;11.590;2023-04-28T06:29:12;95309.16;;;11.19;92.00
15405;BME280;7801;48.124;11.590;2023-04-28T06:31:37;95302.62;;;11.88;96.34
15405;BME280;7801;48.124;11.590;2023-04-28T06:34:05;95299.28;;;13.55;96.35
15405;BME280;7801;48.124;11.590;2023-04-28T06:36:30;95289.28;;;14.12;89.30
15405;BME280;7801;48.124;11.590;2023-04-28T06:38:58;95292.16;;;14.62;82.55
15405;BME280;7801;48.124;11.590;2023-04-28T06:41:23;95286.91;;;15.12;78.10
15405;BME280;7801;48.124;11.590;2023-04-28T06:43:48;95291.16;;;15.13;76.31
15405;BME280;7801;48.124;11.590;2023-04-28T06:46:15;95289.44;;;15.38;75.13
15405;BME280;7801;48.124;11.590;2023-04-28T06:48:41;95286.84;;;15.51;74.09
15405;BME280;7801;48.124;11.590;2023-04-28T06:51:07;95275.91;;;15.64;73.27
15405;BME280;7801;48.124;11.590;2023-04-28T06:53:32;95272.69;;;15.59;73.26
15405;BME280;7801;48.124;11.590;2023-04-28T06:56:02;95271.88;;;15.58;74.19
15405;BME280;7801;48.124;11.590;2023-04-28T06:58:27;95268.84;;;15.80;77.92
15405;BME280;7801;48.124;11.590;2023-04-28T07:00:54;95262.63;;;15.76;75.68
15405;BME280;7801;48.124;11.590;2023-04-28T07:03:21;95262.59;;;15.05;76.89
15405;BME280;7801;48.124;11.590;2023-04-28T07:05:50;95259.84;;;14.47;80.15
15405;BME280;7801;48.124;11.590;2023-04-28T07:08:20;95261.50;;;14.04;82.12
15405;BME280;7801;48.124;11.590;2023-04-28T07:10:45;95252.41;;;13.80;83.07
15405;BME280;7801;48.124;11.590;2023-04-28T07:13:13;95258.38;;;13.59;84.68
15405;BME280;7801;48.124;11.590;2023-04-28T07:15:38;95262.94;;;13.50;85.41
15405;BME280;7801;48.124;11.590;2023-04-28T07:18:05;95264.47;;;13.43;86.36
15405;BME280;7801;48.124;11.590;2023-04-28T07:20:31;95267.31;;;13.55;85.80
15405;BME280;7801;48.124;11.590;2023-04-28T07:22:59;95264.31;;;13.56;85.48
15405;BME280;7801;48.124;11.590;2023-04-28T07:25:28;95256.97;;;13.45;85.92
15405;BME280;7801;48.124;11.590;2023-04-28T07:27:55;95256.31;;;13.39;85.92
15405;BME280;7801;48.124;11.590;2023-04-28T07:30:22;95253.03;;;13.59;85.37
15405;BME280;7801;48.124;11.590;2023-04-28T07:32:49;95249.12;;;13.57;85.51
15405;BME280;7801;48.124;11.590;2023-04-28T07:35:21;95251.81;;;13.48;86.08
15405;BME280;7801;48.124;11.590;2023-04-28T07:37:53;95248.81;;;13.50;85.89
15405;BME280;7801;48.124;11.590;2023-04-28T07:40:20;95251.19;;;13.68;85.85
15405;BME280;7801;48.124;11.590;2023-04-28T07:42:46;95253.66;;;13.82;85.14
15405;BME280;7801;48.124;11.590;2023-04-28T07:45:13;95244.25;;;13.76;84.81
15405;BME280;7801;48.124;11.590;2023-04-28T07:47:41;95243.13;;;13.94;84.39
15405;BME280;7801;48.124;11.590;2023-04-28T07:50:10;95243.28;;;13.98;84.32
15405;BME280;7801;48.124;11.590;2023-04-28T07:52:41;95255.69;;;14.11;83.89
15405;BME280;7801;48.124;11.590;2023-04-28T07:55:09;95257.53;;;14.28;82.80
15405;BME280;7801;48.124;11.590;2023-04-28T07:57:36;95259.06;;;14.37;81.73
15405;BME280;7801;48.124;11.590;2023-04-28T08:00:11;95263.59;;;15.72;80.59
15405;BME280;7801;48.124;11.590;2023-04-28T08:02:40;95262.47;;;16.84;75.16
15405;BME280;7801;48.124;11.590;2023-04-28T08:05:08;95262.19;;;17.74;70.05
15405;BME280;7801;48.124;11.590;2023-04-28T08:07:35;95269.25;;;18.07;67.68
15405;BME280;7801;48.124;11.590;2023-04-28T08:10:03;95267.97;;;16.88;69.66
15405;BME280;7801;48.124;11.590;2023-04-28T08:12:28;95266.13;;;16.22;72.25
15405;BME280;7801;48.124;11.590;2023-04-28T08:14:55;95262.28;;;15.99;72.92
15405;BME280;7801;48.124;11.590;2023-04-28T08:17:26;95266.47;;;15.17;77.32
15405;BME280;7801;48.124;11.590;2023-04-28T08:19:53;95258.59;;;14.53;80.31
15405;BME280;7801;48.124;11.590;2023-04-28T08:22:19;95260.97;;;14.20;83.01
15405;BME280;7801;48.124;11.590;2023-04-28T08:24:46;95260.97;;;14.28;82.47
15405;BME280;7801;48.124;11.590;2023-04-28T08:27:12;95265.81;;;14.35;82.50
15405;BME280;7801;48.124;11.590;2023-04-28T08:29:38;95259.63;;;13.88;84.77
15405;BME280;7801;48.124;11.590;2023-04-28T08:32:06;95252.56;;;13.92;85.26
15405;BME280;7801;48.124;11.590;2023-04-28T08:34:33;95251.94;;;13.60;87.08
15405;BME280;7801;48.124;11.590;2023-04-28T08:37:01;95250.22;;;13.47;88.27
15405;BME280;7801;48.124;11.590;2023-04-28T08:39:29;95246.16;;;13.50;88.40
15405;BME280;7801;48.124;11.590;2023-04-28T08:41:55;95232.66;;;13.63;87.68
15405;BME280;7801;48.124;11.590;2023-04-28T08:44:21;95240.03;;;13.49;88.26
15405;BME280;7801;48.124;11.590;2023-04-28T08:47:11;95238.00;;;13.46;88.39
15405;BME280;7801;48.124;11.590;2023-04-28T08:49:41;95239.72;;;13.25;89.77
15405;BME280;7801;48.124;11.590;2023-04-28T08:52:15;95235.97;;;13.43;88.56
15405;BME280;7801;48.124;11.590;2023-04-28T08:54:43;95226.84;;;13.35;89.05
15405;BME280;7801;48.124;11.590;2023-04-28T08:57:10;95236.25;;;13.24;90.60
15405;BME280;7801;48.124;11.590;2023-04-28T08:59:40;95234.22;;;13.30;90.18
15405;BME280;7801;48.124;11.590;2023-04-28T09:02:08;95235.00;;;13.22;91.05
15405;BME280;7801;48.124;11.590;2023-04-28T09:04:35;95227.97;;;13.43;90.12
15405;BME280;7801;48.124;11.590;2023-04-28T09:07:01;95233.44;;;13.38;90.53
15405;BME280;7801;48.124;11.590;2023-04-28T09:12:54;95226.22;;;13.38;91.17
15405;BME280;7801;48.124;11.590;2023-04-28T09:15:36;95226.06;;;13.35;91.81
15405;BME280;7801;48.124;11.590;2023-04-28T09:18:13;95215.41;;;13.44;91.58
15405;BME280;7801;48.124;11.590;2023-04-28T09:20:43;95222.97;;;13.50;90.99
15405;BME280;7801;48.124;11.590;2023-04-28T09:23:21;95222.16;;;13.32;92.06
15405;BME280;7801;48.124;11.590;2023-04-28T09:26:06;95213.84;;;13.43;92.03
15405;BME280;7801;48.124;11.590;2023-04-28T09:28:34;95211.16;;;13.51;91.79
15405;BME280;7801;48.124;11.590;2023-04-28T09:31:02;95212.44;;;13.36;92.20
15405;BME280;7801;48.124;11.590;2023-04-28T09:33:28;95206.63;;;13.26;92.77
15405;BME280;7801;48.124;11.590;2023-04-28T09:35:56;95213.38;;;13.23;92.76
15405;BME280;7801;48.124;11.590;2023-04-28T09:38:23;95211.34;;;13.29;92.95
15405;BME280;7801;48.124;11.590;2023-04-28T09:40:59;95217.47;;;13.29;92.96
15405;BME280;7801;48.124;11.590;2023-04-28T09:43:33;95221.50;;;13.18;93.40
15405;BME280;7801;48.124;11.590;2023-04-28T09:46:01;95220.25;;;13.33;93.22
15405;BME280;7801;48.124;11.590;2023-04-28T09:48:37;95210.97;;;13.13;94.38
15405;BME280;7801;48.124;11.590;2023-04-28T09:51:05;95209.88;;;13.14;94.71
15405;BME280;7801;48.124;11.590;2023-04-28T09:53:33;95214.41;;;13.14;95.41
15405;BME280;7801;48.124;11.590;2023-04-28T09:56:02;95210.25;;;13.21;95.28
15405;BME280;7801;48.124;11.590;2023-04-28T09:58:42;95200.97;;;13.19;95.04
15405;BME280;7801;48.124;11.590;2023-04-28T10:01:14;95200.81;;;13.15;95.93
15405;BME280;7801;48.124;11.590;2023-04-28T10:03:47;95195.09;;;12.91;96.54
15405;BME280;7801;48.124;11.590;2023-04-28T10:06:15;95192.66;;;13.03;97.18
15405;BME280;7801;48.124;11.590;2023-04-28T10:08:41;95198.91;;;13.07;97.14
15405;BME280;7801;48.124;11.590;2023-04-28T10:11:11;95201.94;;;13.23;96.29
15405;BME280;7801;48.124;11.590;2023-04-28T10:13:43;95197.88;;;13.25;96.66
15405;BME280;7801;48.124;11.590;2023-04-28T10:16:16;95201.59;;;13.16;97.20
15405;BME280;7801;48.124;11.590;2023-04-28T10:18:44;95202.41;;;13.25;96.86
15405;BME280;7801;48.124;11.590;2023-04-28T10:21:11;95191.75;;;13.25;96.38
15405;BME280;7801;48.124;11.590;2023-04-28T10:27:04;95181.38;;;13.06;97.39
15405;BME280;7801;48.124;11.590;2023-04-28T10:29:32;95189.97;;;13.12;97.35
15405;BME280;7801;48.124;11.590;2023-04-28T10:32:33;95190.97;;;13.24;97.13
15405;BME280;7801;48.124;11.590;2023-04-28T10:38:19;95182.97;;;13.24;96.33
15405;BME280;7801;48.124;11.590;2023-04-28T10:40:52;95176.87;;;13.24;97.06
15405;BME280;7801;48.124;11.590;2023-04-28T10:46:18;95178.91;;;13.27;96.93
15405;BME280;7801;48.124;11.590;2023-04-28T10:56:26;95181.81;;;12.99;97.37
15405;BME280;7801;48.124;11.590;2023-04-28T10:58:59;95178.06;;;13.00;97.78
15405;BME280;7801;48.124;11.590;2023-04-28T11:01:31;95176.63;;;12.94;98.22
15405;BME280;7801;48.124;11.590;2023-04-28T11:04:05;95171.97;;;13.08;97.82
15405;BME280;7801;48.124;11.590;2023-04-28T11:06:46;95172.91;;;13.13;98.19
15405;BME280;7801;48.124;11.590;2023-04-28T11:14:31;95181.06;;;13.59;95.85
15405;BME280;7801;48.124;11.590;2023-04-28T11:17:09;95186.56;;;13.54;95.91
15405;BME280;7801;48.124;11.590;2023-04-28T11:19:43;95181.09;;;13.33;96.80
15405;BME280;7801;48.124;11.590;2023-04-28T11:22:20;95178.09;;;13.35;97.27
15405;BME280;7801;48.124;11.590;2023-04-28T11:25:01;95185.50;;;13.29;97.35
15405;BME280;7801;48.124;11.590;2023-04-28T11:27:33;95177.94;;;13.31;97.47
15405;BME280;7801;48.124;11.590;2023-04-28T11:29:59;95190.94;;;13.33;97.31
15405;BME280;7801;48.124;11.590;2023-04-28T11:32:31;95181.88;;;13.17;98.27
15405;BME280;7801;48.124;11.590;2023-04-28T11:35:20;95181.88;;;13.34;97.74
15405;BME280;7801;48.124;11.590;2023-04-28T11:38:00;95189.25;;;13.46;97.37
15405;BME280;7801;48.124;11.590;2023-04-28T11:40:28;95188.62;;;13.49;96.98
15405;BME280;7801;48.124;11.590;2023-04-28T11:42:54;95183.91;;;13.54;96.79
15405;BME280;7801;48.124;11.590;2023-04-28T11:45:25;95187.03;;;13.56;97.17
15405;BME280;7801;48.124;11.590;2023-04-28T11:47:52;95179.97;;;13.52;96.98
15405;BME280;7801;48.124;11.590;2023-04-28T11:50:35;95189.38;;;13.66;96.87
15405;BME280;7801;48.124;11.590;2023-04-28T11:53:00;95178.88;;;13.70;96.93
15405;BME280;7801;48.124;11.590;2023-04-28T11:55:26;95181.34;;;13.75;96.38
15405;BME280;7801;48.124;11.590;2023-04-28T11:58:18;95189.34;;;13.84;96.41
15405;BME280;7801;48.124;11.590;2023-04-28T12:01:08;95181.34;;;13.84;96.63
15405;BME280;7801;48.124;11.590;2023-04-28T12:03:43;95180.91;;;13.64;97.63
15405;BME280;7801;48.124;11.590;2023-04-28T12:06:19;95184.37;;;13.56;98.04
15405;BME280;7801;48.124;11.590;2023-04-28T12:08:50;95192.06;;;13.66;97.73
15405;BME280;7801;48.124;11.590;2023-04-28T12:11:17;95187.69;;;13.45;98.35
15405;BME280;7801;48.124;11.590;2023-04-28T12:14:07;95182.31;;;13.53;98.77
15405;BME280;7801;48.124;11.590;2023-04-28T12:16:40;95186.72;;;13.58;98.39
15405;BME280;7801;48.124;11.590;2023-04-28T12:19:13;95173.72;;;13.48;98.63
15405;BME280;7801;48.124;11.590;2023-04-28T12:21:42;95182.50;;;13.48;99.36
15405;BME280;7801;48.124;11.590;2023-04-28T12:24:19;95185.47;;;13.64;98.92
15405;BME280;7801;48.124;11.590;2023-04-28T12:26:47;95192.19;;;13.53;100.00
15405;BME280;7801;48.124;11.590;2023-04-28T12:29:40;95183.28;;;13.57;100.00
15405;BME280;7801;48.124;11.590;2023-04-28T12:32:17;95187.34;;;13.55;100.00
15405;BME280;7801;48.124;11.590;2023-04-28T12:34:45;95193.31;;;13.69;100.00
15405;BME280;7801;48.124;11.590;2023-04-28T12:37:12;95187.50;;;13.67;100.00
15405;BME280;7801;48.124;11.590;2023-04-28T12:39:38;95195.34;;;13.63;100.00
15405;BME280;7801;48.124;11.590;2023-04-28T12:42:04;95191.56;;;13.82;100.00
15405;BME280;7801;48.124;11.590;2023-04-28T12:44:45;95195.62;;;13.79;100.00
15405;BME280;7801;48.124;11.590;2023-04-28T12:47:10;95199.72;;;13.76;100.00
15405;BME280;7801;48.124;11.590;2023-04-28T12:49:37;95201.13;;;13.74;100.00
15405;BME280;7801;48.124;11.590;2023-04-28T12:52:08;95198.44;;;13.91;100.00
15405;BME280;7801;48.124;11.590;2023-04-28T12:54:34;95206.44;;;13.91;100.00
15405;BME280;7801;48.124;11.590;2023-04-28T12:57:00;95205.81;;;13.86;99.14
15405;BME280;7801;48.124;11.590;2023-04-28T12:59:32;95207.72;;;13.76;99.75
15405;BME280;7801;48.124;11.590;2023-04-28T13:01:59;95206.59;;;13.77;100.00
15405;BME280;7801;48.124;11.590;2023-04-28T13:04:25;95205.81;;;13.77;100.00
15405;BME280;7801;48.124;11.590;2023-04-28T13:06:51;95203.78;;;13.83;100.00
15405;BME280;7801;48.124;11.590;2023-04-28T13:09:18;95193.91;;;13.74;100.00
15405;BME280;7801;48.124;11.590;2023-04-28T13:11:44;95200.66;;;13.81;99.81
15405;BME280;7801;48.124;11.590;2023-04-28T13:14:12;95199.41;;;13.87;99.72
15405;BME280;7801;48.124;11.590;2023-04-28T13:16:39;95188.75;;;13.69;100.00
15405;BME280;7801;48.124;11.590;2023-04-28T13:19:06;95186.22;;;13.82;100.00
15405;BME280;7801;48.124;11.590;2023-04-28T13:21:37;95184.34;;;13.91;100.00
15405;BME280;7801;48.124;11.590;2023-04-28T13:24:03;95186.34;;;14.02;99.87
15405;BME280;7801;48.124;11.590;2023-04-28T13:26:30;95173.63;;;14.08;99.30
15405;BME280;7801;48.124;11.590;2023-04-28T13:28:57;95177.84;;;14.09;99.48
15405;BME280;7801;48.124;11.590;2023-04-28T13:31:24;95173.41;;;14.22;99.22
15405;BME280;7801;48.124;11.590;2023-04-28T13:33:52;95183.34;;;15.09;97.32